Time;durP1;ratioP1;P1;durP2;ratioP2;P2;SDS_P1;SDS_P2;PMS_P1;PMS_P2;Temp;Humidity;BMP_temperature;BMP_pressure;BME280_temperature;BME280_humidity;BME280_pressure;Samples;Min_cycle;Max_cycle;Signal;HPM_P1;HPM_P2
2023/01/19 00:00:05;;;;;;;;;;;;;;;;;;5053358;28;2165;-45
2023/01/19 00:02:32;;;;;;;;;;;;;;;;;;5053585;28;2118;-43
2023/01/19 00:05:00;;;;;;;;;;;;;;;;;;5053366;28;2120;-45
2023/01/19 00:07:28;;;;;;;;;;;;;;;;;;5053473;28;2045;-46
2023/01/19 00:09:56;;;;;;;;;;;;;;;;;;5053207;28;1825;-46
2023/01/19 00:12:23;;;;;;;;;;;;;;;;;;5053361;28;1722;-46
2023/01/19 00:14:50;;;;;;;;;;;;;;;;;;5053103;28;1908;-46
2023/01/19 00:17:18;;;;;;;;;;;;;;;;;;5051531;28;1957;-43
2023/01/19 00:19:45;;;;;;;;;;;;;;;;;;5052879;28;1968;-45
2023/01/19 00:22:13;;;;;;;;;;;;;;;;;;5052843;28;2069;-43
2023/01/19 00:24:40;;;;;;;;;;;;;;;;;;5052988;28;2095;-43
2023/01/19 00:27:07;;;;;;;;;;;;;;;;;;5052589;28;1942;-43
2023/01/19 00:29:35;;;;;;;;;;;;;;;;;;5052901;28;1834;-44
2023/01/19 00:32:03;;;;;;;;;;;;;;;;;;5018384;28;1838;-43
2023/01/19 00:34:35;;;;;;;;;;;;;;;;;;5052608;28;1908;-43
2023/01/19 00:37:03;;;;;;;;;;;;;;;;;;5052680;28;1788;-45
2023/01/19 00:39:30;;;;;;;;;;;;;;;;;;5052367;28;2037;-45
2023/01/19 00:44:43;;;;;;;;;;;;;;;;;;5052391;28;2108;-44
2023/01/19 00:47:11;;;;;;;;;;;;;;;;;;5052383;28;2031;-42
2023/01/19 00:49:38;;;;;;;;;;;;;;;;;;5052249;28;1535;-44
2023/01/19 00:52:05;;;;;;;;;;;;;;;;;;5052021;28;1853;-47
2023/01/19 00:54:33;;;;;;;;;;;;;;;;;;5052200;28;2101;-43
2023/01/19 00:57:00;;;;;;;;;;;;;;;;;;5052285;28;1779;-42
2023/01/19 00:59:28;;;;;;;;;;;;;;;;;;5052139;28;1975;-42
2023/01/19 01:01:55;;;;;;;;;;;;;;;;;;5051472;28;1711;-41
2023/01/19 01:04:22;;;;;;;;;;;;;;;;;;5052017;28;2177;-45
2023/01/19 01:06:49;;;;;;;;;;;;;;;;;;5052074;28;1845;-41
2023/01/19 01:09:16;;;;;;;;;;;;;;;;;;5052070;28;1915;-44
2023/01/19 01:11:43;;;;;;;;;;;;;;;;;;5051609;28;2032;-42
2023/01/19 01:14:11;;;;;;;;;;;;;;;;;;5051567;28;2271;-42
2023/01/19 01:16:39;;;;;;;;;;;;;;;;;;5051713;28;1696;-43
2023/01/19 01:19:06;;;;;;;;;;;;;;;;;;5051645;28;1886;-43
2023/01/19 01:21:34;;;;;;;;;;;;;;;;;;5051863;28;1405;-42
2023/01/19 01:24:02;;;;;;;;;;;;;;;;;;5051840;28;2168;-45
2023/01/19 01:26:29;;;;;;;;;;;;;;;;;;5049445;28;2067;-41
2023/01/19 01:28:56;;;;;;;;;;;;;;;;;;5031813;28;1889;-42
2023/01/19 01:31:23;;;;;;;;;;;;;;;;;;5031530;28;1672;-42
2023/01/19 01:33:53;;;;;;;;;;;;;;;;;;5051342;28;1379;-44
2023/01/19 01:36:20;;;;;;;;;;;;;;;;;;5051318;28;2059;-41
2023/01/19 01:38:47;;;;;;;;;;;;;;;;;;5051481;28;1735;-42
2023/01/19 01:41:15;;;;;;;;;;;;;;;;;;5051262;28;1862;-41
2023/01/19 01:43:53;;;;;;;;;;;;;;;;;;5051450;28;2057;-44
2023/01/19 01:46:20;;;;;;;;;;;;;;;;;;5051252;28;1845;-40
2023/01/19 01:49:08;;;;;;;;;;;;;;;;;;5051451;28;1585;-40
2023/01/19 01:51:40;;;;;;;;;;;;;;;;;;5051061;28;1848;-40
2023/01/19 01:54:20;;;;;;;;;;;;;;;;;;5051335;28;1930;-41
2023/01/19 01:56:49;;;;;;;;;;;;;;;;;;5050908;28;2087;-40
2023/01/19 01:59:24;;;;;;;;;;;;;;;;;;5051055;28;1965;-42
2023/01/19 02:04:39;;;;;;;;;;;;;;;;;;5051116;28;2056;-42
2023/01/19 02:15:25;;;;;;;;;;;;;;;;;;5051344;28;1906;-41
2023/01/19 02:17:52;;;;;;;;;;;;;;;;;;5050580;28;2115;-42
2023/01/19 02:20:20;;;;;;;;;;;;;;;;;;5050886;28;2128;-40
2023/01/19 02:22:48;;;;;;;;;;;;;;;;;;5050999;28;1786;-41
2023/01/19 02:25:17;;;;;;;;;;;;;;;;;;5050939;28;1684;-41
2023/01/19 02:27:44;;;;;;;;;;;;;;;;;;5050781;28;1732;-41
2023/01/19 02:30:15;;;;;;;;;;;;;;;;;;5050681;28;2131;-42
2023/01/19 02:32:42;;;;;;;;;;;;;;;;;;5050657;28;1888;-45
2023/01/19 02:35:10;;;;;;;;;;;;;;;;;;5050690;28;2137;-42
2023/01/19 02:37:39;;;;;;;;;;;;;;;;;;5051053;28;1737;-41
2023/01/19 02:40:11;;;;;;;;;;;;;;;;;;5050826;28;1598;-42
2023/01/19 02:42:42;;;;;;;;;;;;;;;;;;5050795;28;2019;-41
2023/01/19 02:45:11;;;;;;;;;;;;;;;;;;5050616;28;2188;-41
2023/01/19 02:47:49;;;;;;;;;;;;;;;;;;5050597;28;1832;-41
2023/01/19 02:50:37;;;;;;;;;;;;;;;;;;5049209;28;1833;-41
2023/01/19 02:53:11;;;;;;;;;;;;;;;;;;5050736;28;1741;-40
2023/01/19 02:55:39;;;;;;;;;;;;;;;;;;5049198;28;2093;-41
2023/01/19 02:58:10;;;;;;;;;;;;;;;;;;5050627;28;1698;-42
2023/01/19 03:00:43;;;;;;;;;;;;;;;;;;5050736;28;2161;-42
2023/01/19 03:03:19;;;;;;;;;;;;;;;;;;5050538;28;2077;-42
2023/01/19 03:06:04;;;;;;;;;;;;;;;;;;5050597;28;1825;-40
2023/01/19 03:08:46;;;;;;;;;;;;;;;;;;5050629;28;2041;-42
2023/01/19 03:11:14;;;;;;;;;;;;;;;;;;5050444;28;1673;-41
2023/01/19 03:13:43;;;;;;;;;;;;;;;;;;5050103;28;1671;-41
2023/01/19 03:16:14;;;;;;;;;;;;;;;;;;5050207;28;1906;-39
2023/01/19 03:18:43;;;;;;;;;;;;;;;;;;5050151;28;1717;-40
2023/01/19 03:21:12;;;;;;;;;;;;;;;;;;5049956;28;2125;-40
2023/01/19 03:23:40;;;;;;;;;;;;;;;;;;5050392;28;1532;-40
2023/01/19 03:26:09;;;;;;;;;;;;;;;;;;5053660;28;2269;-40
2023/01/19 03:28:38;;;;;;;;;;;;;;;;;;5034230;28;1881;-40
2023/01/19 03:31:08;;;;;;;;;;;;;;;;;;5034093;28;2209;-40
2023/01/19 03:33:38;;;;;;;;;;;;;;;;;;5033664;28;2016;-40
2023/01/19 03:36:11;;;;;;;;;;;;;;;;;;5033670;28;1968;-41
2023/01/19 03:38:40;;;;;;;;;;;;;;;;;;5033585;28;1775;-40
2023/01/19 03:41:10;;;;;;;;;;;;;;;;;;5033737;28;2040;-40
2023/01/19 03:43:38;;;;;;;;;;;;;;;;;;5033371;28;2106;-40
2023/01/19 03:46:11;;;;;;;;;;;;;;;;;;5033880;28;2155;-40
2023/01/19 03:48:39;;;;;;;;;;;;;;;;;;5033494;28;2047;-39
2023/01/19 03:51:07;;;;;;;;;;;;;;;;;;5033678;28;1988;-39
2023/01/19 03:53:34;;;;;;;;;;;;;;;;;;5033705;28;1744;-40
2023/01/19 03:56:01;;;;;;;;;;;;;;;;;;5033524;28;2171;-39
2023/01/19 03:58:28;;;;;;;;;;;;;;;;;;5016005;28;2051;-39
2023/01/19 04:00:56;;;;;;;;;;;;;;;;;;5033324;28;1963;-39
2023/01/19 04:03:23;;;;;;;;;;;;;;;;;;5033290;28;1941;-40
2023/01/19 04:05:50;;;;;;;;;;;;;;;;;;5033090;28;2054;-40
2023/01/19 04:08:18;;;;;;;;;;;;;;;;;;5032821;28;1876;-39
2023/01/19 04:10:45;;;;;;;;;;;;;;;;;;5033293;28;1942;-40
2023/01/19 04:13:12;;;;;;;;;;;;;;;;;;5033157;28;2008;-39
2023/01/19 04:15:39;;;;;;;;;;;;;;;;;;5032853;28;2000;-39
2023/01/19 04:18:07;;;;;;;;;;;;;;;;;;5049671;28;1717;-38
2023/01/19 04:20:34;;;;;;;;;;;;;;;;;;5053205;28;1811;-40
2023/01/19 04:23:02;;;;;;;;;;;;;;;;;;5053090;28;1580;-39
2023/01/19 04:25:29;;;;;;;;;;;;;;;;;;5051826;28;2056;-40
2023/01/19 04:27:57;;;;;;;;;;;;;;;;;;5052777;28;2188;-39
2023/01/19 04:30:24;;;;;;;;;;;;;;;;;;5052802;28;1943;-39
2023/01/19 04:32:54;;;;;;;;;;;;;;;;;;5052296;28;1941;-39
2023/01/19 04:35:21;;;;;;;;;;;;;;;;;;5052116;28;1920;-40
2023/01/19 04:37:48;;;;;;;;;;;;;;;;;;5052309;28;2003;-40
2023/01/19 04:40:15;;;;;;;;;;;;;;;;;;5052622;28;2069;-40
2023/01/19 04:42:44;;;;;;;;;;;;;;;;;;5052729;28;1730;-39
2023/01/19 04:45:12;;;;;;;;;;;;;;;;;;5052098;28;1898;-40
2023/01/19 04:47:39;;;;;;;;;;;;;;;;;;5051431;28;2207;-40
2023/01/19 04:50:07;;;;;;;;;;;;;;;;;;5052588;28;1420;-39
2023/01/19 04:52:34;;;;;;;;;;;;;;;;;;5052201;28;1595;-40
2023/01/19 04:55:02;;;;;;;;;;;;;;;;;;5051961;28;2131;-40
2023/01/19 04:57:30;;;;;;;;;;;;;;;;;;5052363;28;1931;-40
2023/01/19 04:59:57;;;;;;;;;;;;;;;;;;5052165;28;2158;-39
2023/01/19 05:02:24;;;;;;;;;;;;;;;;;;5052348;28;1512;-40
2023/01/19 05:04:55;;;;;;;;;;;;;;;;;;5052029;28;1660;-40
2023/01/19 05:07:22;;;;;;;;;;;;;;;;;;5052108;28;2164;-40
2023/01/19 05:09:49;;;;;;;;;;;;;;;;;;5052264;28;1985;-40
2023/01/19 05:12:16;;;;;;;;;;;;;;;;;;5051921;28;1599;-40
2023/01/19 05:14:43;;;;;;;;;;;;;;;;;;5051900;28;2138;-40
2023/01/19 05:17:10;;;;;;;;;;;;;;;;;;5052122;28;1967;-38
2023/01/19 05:19:38;;;;;;;;;;;;;;;;;;5052075;28;1852;-42
2023/01/19 05:22:05;;;;;;;;;;;;;;;;;;5051872;28;2193;-39
2023/01/19 05:24:32;;;;;;;;;;;;;;;;;;5051420;28;2047;-39
2023/01/19 05:26:59;;;;;;;;;;;;;;;;;;5051458;28;1489;-41
2023/01/19 05:29:26;;;;;;;;;;;;;;;;;;5051329;28;1885;-39
2023/01/19 05:31:53;;;;;;;;;;;;;;;;;;5051463;28;2006;-39
2023/01/19 05:34:20;;;;;;;;;;;;;;;;;;5051571;28;1751;-40
2023/01/19 05:36:48;;;;;;;;;;;;;;;;;;5051564;28;2035;-39
2023/01/19 05:39:20;;;;;;;;;;;;;;;;;;5051407;28;2177;-39
2023/01/19 05:41:47;;;;;;;;;;;;;;;;;;5051349;28;2001;-39
2023/01/19 05:44:14;;;;;;;;;;;;;;;;;;5051064;28;1882;-39
2023/01/19 05:46:41;;;;;;;;;;;;;;;;;;5051124;28;1549;-39
2023/01/19 05:49:08;;;;;;;;;;;;;;;;;;5051075;28;1851;-39
2023/01/19 05:51:44;;;;;;;;;;;;;;;;;;5051313;28;1730;-40
2023/01/19 05:54:12;;;;;;;;;;;;;;;;;;5051295;28;1746;-39
2023/01/19 05:56:39;;;;;;;;;;;;;;;;;;5051036;28;1911;-39
2023/01/19 05:59:06;;;;;;;;;;;;;;;;;;5051328;28;1554;-39
2023/01/19 06:01:35;;;;;;;;;;;;;;;;;;5050869;28;2186;-40
2023/01/19 06:04:05;;;;;;;;;;;;;;;;;;5051112;28;1998;-39
2023/01/19 06:06:32;;;;;;;;;;;;;;;;;;5050632;28;2055;-39
2023/01/19 06:08:59;;;;;;;;;;;;;;;;;;5051261;28;1866;-40
2023/01/19 06:11:27;;;;;;;;;;;;;;;;;;5051094;28;1802;-40
2023/01/19 06:14:00;;;;;;;;;;;;;;;;;;5050900;28;2121;-39
2023/01/19 06:16:30;;;;;;;;;;;;;;;;;;5050875;28;1983;-40
2023/01/19 06:18:57;;;;;;;;;;;;;;;;;;5050865;28;2031;-39
2023/01/19 06:21:25;;;;;;;;;;;;;;;;;;5051027;28;1946;-40
2023/01/19 06:23:52;;;;;;;;;;;;;;;;;;5050660;28;1413;-38
2023/01/19 06:26:20;;;;;;;;;;;;;;;;;;5049886;28;1763;-39
2023/01/19 06:28:49;;;;;;;;;;;;;;;;;;5030935;28;2242;-38
2023/01/19 06:31:16;;;;;;;;;;;;;;;;;;5031031;28;1542;-39
2023/01/19 06:33:44;;;;;;;;;;;;;;;;;;5030666;28;1798;-39
2023/01/19 06:36:11;;;;;;;;;;;;;;;;;;5030688;28;1906;-39
2023/01/19 06:38:38;;;;;;;;;;;;;;;;;;5031042;28;1593;-38
2023/01/19 06:41:05;;;;;;;;;;;;;;;;;;5030944;28;1382;-39
2023/01/19 06:43:33;;;;;;;;;;;;;;;;;;5030877;28;1985;-39
2023/01/19 06:46:00;;;;;;;;;;;;;;;;;;5030830;28;1359;-39
2023/01/19 06:48:27;;;;;;;;;;;;;;;;;;5030221;28;1730;-39
2023/01/19 06:50:54;;;;;;;;;;;;;;;;;;5030660;28;2163;-39
2023/01/19 06:53:26;;;;;;;;;;;;;;;;;;5030726;28;1357;-39
2023/01/19 06:55:57;;;;;;;;;;;;;;;;;;5030368;28;1970;-39
2023/01/19 06:58:24;;;;;;;;;;;;;;;;;;5030465;28;1452;-38
2023/01/19 07:00:51;;;;;;;;;;;;;;;;;;5033802;28;1272;-38
2023/01/19 07:03:19;;;;;;;;;;;;;;;;;;5034616;28;1828;-39
2023/01/19 07:05:50;;;;;;;;;;;;;;;;;;5034653;28;1253;-38
2023/01/19 07:08:17;;;;;;;;;;;;;;;;;;5034319;28;1807;-38
2023/01/19 07:10:44;;;;;;;;;;;;;;;;;;5034457;28;2175;-38
2023/01/19 07:13:32;;;;;;;;;;;;;;;;;;5034275;28;2312;-38
2023/01/19 07:16:05;;;;;;;;;;;;;;;;;;5034131;28;1985;-39
2023/01/19 07:18:35;;;;;;;;;;;;;;;;;;5034491;28;1898;-39
2023/01/19 07:21:02;;;;;;;;;;;;;;;;;;5034178;28;1513;-38
2023/01/19 07:23:29;;;;;;;;;;;;;;;;;;5033884;28;1569;-39
2023/01/19 07:25:57;;;;;;;;;;;;;;;;;;5033961;28;1809;-38
2023/01/19 07:28:33;;;;;;;;;;;;;;;;;;5052821;28;1974;-39
2023/01/19 07:31:03;;;;;;;;;;;;;;;;;;5053935;28;1310;-39
2023/01/19 07:33:31;;;;;;;;;;;;;;;;;;5053581;28;1387;-38
2023/01/19 07:35:58;;;;;;;;;;;;;;;;;;5053828;28;1898;-39
2023/01/19 07:38:26;;;;;;;;;;;;;;;;;;5053480;28;1932;-38
2023/01/19 07:41:00;;;;;;;;;;;;;;;;;;5053594;28;1690;-39
2023/01/19 07:43:28;;;;;;;;;;;;;;;;;;5053697;28;2169;-38
2023/01/19 07:45:55;;;;;;;;;;;;;;;;;;5053615;28;2143;-39
2023/01/19 07:48:23;;;;;;;;;;;;;;;;;;5053305;28;1656;-38
2023/01/19 07:50:52;;;;;;;;;;;;;;;;;;5053618;28;1280;-39
2023/01/19 07:53:19;;;;;;;;;;;;;;;;;;5053313;28;2010;-38
2023/01/19 07:55:52;;;;;;;;;;;;;;;;;;5053342;28;1938;-37
2023/01/19 07:58:24;;;;;;;;;;;;;;;;;;5053583;28;1556;-38
2023/01/19 08:00:51;;;;;;;;;;;;;;;;;;5053713;28;1658;-38
2023/01/19 08:03:19;;;;;;;;;;;;;;;;;;5053232;28;1969;-38
2023/01/19 08:05:50;;;;;;;;;;;;;;;;;;5051661;28;1757;-38
2023/01/19 08:08:17;;;;;;;;;;;;;;;;;;5053169;28;1959;-38
2023/01/19 08:10:48;;;;;;;;;;;;;;;;;;5052900;28;1765;-38
2023/01/19 08:13:15;;;;;;;;;;;;;;;;;;5053138;28;2096;-39
2023/01/19 08:15:42;;;;;;;;;;;;;;;;;;5052855;28;1718;-39
2023/01/19 08:18:10;;;;;;;;;;;;;;;;;;5052798;28;1910;-38
2023/01/19 08:20:38;;;;;;;;;;;;;;;;;;5052932;28;2132;-38
2023/01/19 08:23:08;;;;;;;;;;;;;;;;;;5052843;28;1768;-38
2023/01/19 08:25:41;;;;;;;;;;;;;;;;;;5052528;28;1561;-36
2023/01/19 08:28:09;;;;;;;;;;;;;;;;;;5036546;28;2118;-38
2023/01/19 08:30:42;;;;;;;;;;;;;;;;;;5032714;28;2480;-38
2023/01/19 08:33:12;;;;;;;;;;;;;;;;;;5032558;28;1868;-39
2023/01/19 08:35:40;;;;;;;;;;;;;;;;;;5032745;28;1758;-38
2023/01/19 08:38:08;;;;;;;;;;;;;;;;;;5032529;28;1910;-39
2023/01/19 08:40:37;;;;;;;;;;;;;;;;;;5032767;28;1520;-37
2023/01/19 08:43:09;;;;;;;;;;;;;;;;;;5032302;28;1820;-39
2023/01/19 08:45:40;;;;;;;;;;;;;;;;;;5032522;28;1761;-39
2023/01/19 08:48:08;;;;;;;;;;;;;;;;;;5032448;28;1966;-38
2023/01/19 08:50:35;;;;;;;;;;;;;;;;;;5032608;28;1682;-39
2023/01/19 08:53:08;;;;;;;;;;;;;;;;;;5032345;28;1517;-38
2023/01/19 08:55:36;;;;;;;;;;;;;;;;;;5032358;28;2047;-38
2023/01/19 08:58:10;;;;;;;;;;;;;;;;;;5032016;28;1995;-38
2023/01/19 09:00:38;;;;;;;;;;;;;;;;;;5032039;28;1618;-38
2023/01/19 09:03:10;;;;;;;;;;;;;;;;;;5032028;28;1966;-38
2023/01/19 09:05:38;;;;;;;;;;;;;;;;;;5031966;28;1790;-39
2023/01/19 09:08:07;;;;;;;;;;;;;;;;;;5031938;28;1292;-39
2023/01/19 09:10:36;;;;;;;;;;;;;;;;;;5031993;28;2236;-38
2023/01/19 09:13:09;;;;;;;;;;;;;;;;;;5031821;28;1862;-39
2023/01/19 09:15:37;;;;;;;;;;;;;;;;;;5031991;28;1838;-37
2023/01/19 09:18:06;;;;;;;;;;;;;;;;;;5031813;28;1910;-38
2023/01/19 09:20:37;;;;;;;;;;;;;;;;;;5031732;28;1593;-37
2023/01/19 09:23:05;;;;;;;;;;;;;;;;;;5031082;28;1531;-38
2023/01/19 09:25:32;;;;;;;;;;;;;;;;;;5031807;28;1832;-41
2023/01/19 09:27:59;;;;;;;;;;;;;;;;;;5046431;28;1603;-38
2023/01/19 09:30:27;;;;;;;;;;;;;;;;;;5037666;28;1938;-38
2023/01/19 09:32:54;;;;;;;;;;;;;;;;;;5031702;28;1473;-37
2023/01/19 09:35:21;;;;;;;;;;;;;;;;;;5031518;28;1630;-38
2023/01/19 09:37:48;;;;;;;;;;;;;;;;;;5031580;28;2494;-39
2023/01/19 09:40:18;;;;;;;;;;;;;;;;;;5031699;28;1754;-38
2023/01/19 09:42:51;;;;;;;;;;;;;;;;;;5031345;28;2113;-39
2023/01/19 09:45:26;;;;;;;;;;;;;;;;;;5031112;28;1756;-37
2023/01/19 09:47:53;;;;;;;;;;;;;;;;;;5031312;28;1922;-39
2023/01/19 09:50:25;;;;;;;;;;;;;;;;;;5031632;28;2095;-40
2023/01/19 09:52:55;;;;;;;;;;;;;;;;;;5031292;28;1896;-40
2023/01/19 09:55:24;;;;;;;;;;;;;;;;;;5031052;28;2028;-39
2023/01/19 09:57:52;;;;;;;;;;;;;;;;;;5031061;28;1911;-38
2023/01/19 10:00:21;;;;;;;;;;;;;;;;;;5031113;28;1833;-38
2023/01/19 10:02:54;;;;;;;;;;;;;;;;;;5031062;28;1222;-39
2023/01/19 10:05:30;;;;;;;;;;;;;;;;;;5031190;28;1749;-38
2023/01/19 10:08:07;;;;;;;;;;;;;;;;;;5013904;28;1995;-40
2023/01/19 10:10:35;;;;;;;;;;;;;;;;;;5013238;28;2116;-37
2023/01/19 10:13:11;;;;;;;;;;;;;;;;;;5031197;28;1880;-38
2023/01/19 10:15:45;;;;;;;;;;;;;;;;;;5030936;28;1918;-37
2023/01/19 10:18:12;;;;;;;;;;;;;;;;;;5030829;28;1981;-38
2023/01/19 10:20:43;;;;;;;;;;;;;;;;;;5030927;28;1480;-46
2023/01/19 10:23:25;;;;;;;;;;;;;;;;;;5030879;28;1810;-39
2023/01/19 10:25:53;;;;;;;;;;;;;;;;;;5030699;28;2011;-38
2023/01/19 10:28:22;;;;;;;;;;;;;;;;;;5048534;28;1858;-37
2023/01/19 10:30:52;;;;;;;;;;;;;;;;;;5050707;28;1595;-38
2023/01/19 10:33:19;;;;;;;;;;;;;;;;;;5050220;28;1377;-37
2023/01/19 10:35:52;;;;;;;;;;;;;;;;;;5054398;28;1448;-40
2023/01/19 10:38:20;;;;;;;;;;;;;;;;;;5054767;28;1914;-38
2023/01/19 10:40:53;;;;;;;;;;;;;;;;;;5054850;28;1663;-38
2023/01/19 10:43:33;;;;;;;;;;;;;;;;;;5054694;28;1363;-38
2023/01/19 10:46:26;;;;;;;;;;;;;;;;;;5054562;28;1679;-37
2023/01/19 10:48:54;;;;;;;;;;;;;;;;;;5052415;28;1979;-38
2023/01/19 10:51:22;;;;;;;;;;;;;;;;;;5054637;28;1958;-38
2023/01/19 10:53:54;;;;;;;;;;;;;;;;;;5054639;28;1606;-38
2023/01/19 10:56:23;;;;;;;;;;;;;;;;;;5054391;28;1409;-38
2023/01/19 10:58:50;;;;;;;;;;;;;;;;;;5054464;28;2171;-38
2023/01/19 11:01:25;;;;;;;;;;;;;;;;;;5054467;28;1829;-40
2023/01/19 11:03:55;;;;;;;;;;;;;;;;;;5054319;28;1626;-39
2023/01/19 11:06:25;;;;;;;;;;;;;;;;;;5054408;28;1476;-38
2023/01/19 11:09:07;;;;;;;;;;;;;;;;;;5054070;28;1598;-36
2023/01/19 11:11:40;;;;;;;;;;;;;;;;;;5054280;28;1878;-37
2023/01/19 11:14:09;;;;;;;;;;;;;;;;;;5035956;28;2238;-38
2023/01/19 11:16:38;;;;;;;;;;;;;;;;;;5054066;28;1010;-37
2023/01/19 11:19:14;;;;;;;;;;;;;;;;;;5054220;28;1863;-38
2023/01/19 11:21:42;;;;;;;;;;;;;;;;;;5036507;28;1594;-38
2023/01/19 11:24:13;;;;;;;;;;;;;;;;;;5052612;28;1570;-38
2023/01/19 11:26:46;;;;;;;;;;;;;;;;;;5048442;28;1746;-38
2023/01/19 11:29:24;;;;;;;;;;;;;;;;;;5032250;28;1801;-38
2023/01/19 11:31:52;;;;;;;;;;;;;;;;;;5032289;28;1801;-38
2023/01/19 11:34:25;;;;;;;;;;;;;;;;;;5032399;28;1483;-37
2023/01/19 11:36:59;;;;;;;;;;;;;;;;;;5032308;28;2108;-39
2023/01/19 11:39:29;;;;;;;;;;;;;;;;;;5035128;28;1929;-37
2023/01/19 11:42:01;;;;;;;;;;;;;;;;;;5050567;28;1484;-39
2023/01/19 11:44:30;;;;;;;;;;;;;;;;;;5051817;28;1652;-37
2023/01/19 11:47:01;;;;;;;;;;;;;;;;;;5051861;28;1344;-37
2023/01/19 11:49:47;;;;;;;;;;;;;;;;;;5051842;28;1987;-38
2023/01/19 11:52:24;;;;;;;;;;;;;;;;;;5052117;28;1973;-38
2023/01/19 11:54:54;;;;;;;;;;;;;;;;;;5052020;28;2130;-38
2023/01/19 11:57:22;;;;;;;;;;;;;;;;;;5051740;28;2015;-38
2023/01/19 11:59:52;;;;;;;;;;;;;;;;;;5051765;28;1967;-38
2023/01/19 12:02:49;;;;;;;;;;;;;;;;;;5051605;28;1997;-38
2023/01/19 12:05:18;;;;;;;;;;;;;;;;;;5027082;28;1583;-36
2023/01/19 12:07:47;;;;;;;;;;;;;;;;;;5031774;28;1725;-37
2023/01/19 12:10:22;;;;;;;;;;;;;;;;;;5031756;28;1893;-37
2023/01/19 12:12:50;;;;;;;;;;;;;;;;;;5044460;28;2068;-37
2023/01/19 12:15:32;;;;;;;;;;;;;;;;;;5051410;28;1419;-38
2023/01/19 12:18:00;;;;;;;;;;;;;;;;;;5051153;28;1986;-38
2023/01/19 12:20:37;;;;;;;;;;;;;;;;;;5051315;28;1720;-37
2023/01/19 12:23:23;;;;;;;;;;;;;;;;;;5051864;28;1836;-37
2023/01/19 12:26:11;;;;;;;;;;;;;;;;;;5051270;28;1272;-36
2023/01/19 12:28:39;;;;;;;;;;;;;;;;;;5032857;28;1802;-37
2023/01/19 12:31:08;;;;;;;;;;;;;;;;;;5033058;28;1411;-38
2023/01/19 12:33:39;;;;;;;;;;;;;;;;;;5032802;28;1772;-37
2023/01/19 12:36:15;;;;;;;;;;;;;;;;;;5032917;28;1703;-37
2023/01/19 12:38:55;;;;;;;;;;;;;;;;;;5032500;28;2091;-36
2023/01/19 12:41:30;;;;;;;;;;;;;;;;;;5032848;28;1306;-37
2023/01/19 12:44:14;;;;;;;;;;;;;;;;;;5032556;28;2640;-36
2023/01/19 12:46:44;;;;;;;;;;;;;;;;;;5032433;28;2002;-38
2023/01/19 12:49:14;;;;;;;;;;;;;;;;;;5032619;28;1908;-37
2023/01/19 12:51:42;;;;;;;;;;;;;;;;;;5032482;28;1599;-36
2023/01/19 12:54:17;;;;;;;;;;;;;;;;;;5032489;28;2206;-37
2023/01/19 12:56:47;;;;;;;;;;;;;;;;;;5031377;28;1696;-40
2023/01/19 12:59:32;;;;;;;;;;;;;;;;;;5037615;28;2516;-38
2023/01/19 13:02:18;;;;;;;;;;;;;;;;;;5052143;28;1868;-39
2023/01/19 13:05:03;;;;;;;;;;;;;;;;;;5052152;28;1926;-38
2023/01/19 13:07:50;;;;;;;;;;;;;;;;;;5051813;28;1650;-37
2023/01/19 13:10:36;;;;;;;;;;;;;;;;;;5051765;28;1467;-39
2023/01/19 13:13:36;;;;;;;;;;;;;;;;;;5051554;28;2002;-38
2023/01/19 13:16:18;;;;;;;;;;;;;;;;;;5018712;28;1445;-38
2023/01/19 13:18:50;;;;;;;;;;;;;;;;;;5051957;28;2218;-37
2023/01/19 13:21:27;;;;;;;;;;;;;;;;;;5051875;28;1533;-37
2023/01/19 13:23:55;;;;;;;;;;;;;;;;;;5051840;28;1791;-37
2023/01/19 13:26:24;;;;;;;;;;;;;;;;;;5050625;28;1741;-37
2023/01/19 13:28:53;;;;;;;;;;;;;;;;;;5031984;28;940;-37
2023/01/19 13:31:21;;;;;;;;;;;;;;;;;;5031485;28;1688;-38
2023/01/19 13:33:50;;;;;;;;;;;;;;;;;;5031845;28;1852;-37
2023/01/19 13:36:39;;;;;;;;;;;;;;;;;;5031730;28;1861;-36
2023/01/19 13:39:14;;;;;;;;;;;;;;;;;;5031120;28;2001;-37
2023/01/19 13:41:45;;;;;;;;;;;;;;;;;;5031684;28;1666;-37
2023/01/19 13:44:35;;;;;;;;;;;;;;;;;;5031661;28;1758;-37
2023/01/19 13:47:03;;;;;;;;;;;;;;;;;;5020918;28;1558;-36
2023/01/19 13:49:34;;;;;;;;;;;;;;;;;;5031554;28;1441;-37
2023/01/19 13:52:20;;;;;;;;;;;;;;;;;;5031519;28;1870;-36
2023/01/19 13:54:51;;;;;;;;;;;;;;;;;;5031134;28;1482;-36
2023/01/19 13:57:23;;;;;;;;;;;;;;;;;;5031260;28;1975;-36
2023/01/19 14:00:22;;;;;;;;;;;;;;;;;;5031354;28;1637;-37
2023/01/19 14:02:51;;;;;;;;;;;;;;;;;;4988058;28;1628;-37
2023/01/19 14:05:19;;;;;;;;;;;;;;;;;;5031239;28;1799;-37
2023/01/19 14:07:46;;;;;;;;;;;;;;;;;;5030935;28;2044;-37
2023/01/19 14:10:15;;;;;;;;;;;;;;;;;;5031423;28;2133;-38
2023/01/19 14:12:42;;;;;;;;;;;;;;;;;;5031380;28;2298;-39
2023/01/19 14:15:24;;;;;;;;;;;;;;;;;;5030894;28;1327;-38
2023/01/19 14:18:07;;;;;;;;;;;;;;;;;;5030907;28;1990;-38
2023/01/19 14:20:38;;;;;;;;;;;;;;;;;;5030652;28;1996;-39
2023/01/19 14:23:06;;;;;;;;;;;;;;;;;;5031134;28;1770;-39
2023/01/19 14:25:34;;;;;;;;;;;;;;;;;;5030885;28;1476;-39
2023/01/19 14:28:20;;;;;;;;;;;;;;;;;;5045817;28;2113;-38
2023/01/19 14:30:54;;;;;;;;;;;;;;;;;;5050769;28;1713;-38
2023/01/19 14:33:35;;;;;;;;;;;;;;;;;;5050859;28;2064;-38
2023/01/19 14:36:21;;;;;;;;;;;;;;;;;;5050798;28;2097;-39
2023/01/19 14:38:49;;;;;;;;;;;;;;;;;;5050642;28;2341;-38
2023/01/19 14:41:42;;;;;;;;;;;;;;;;;;5050641;28;1669;-38
2023/01/19 14:44:10;;;;;;;;;;;;;;;;;;5047409;28;2237;-37
2023/01/19 14:46:42;;;;;;;;;;;;;;;;;;5050685;28;2010;-39
2023/01/19 14:49:15;;;;;;;;;;;;;;;;;;5050384;28;1866;-36
2023/01/19 14:51:44;;;;;;;;;;;;;;;;;;5050384;28;1960;-38
2023/01/19 14:54:14;;;;;;;;;;;;;;;;;;5050612;28;1966;-39
2023/01/19 14:56:42;;;;;;;;;;;;;;;;;;5050480;28;1680;-38
2023/01/19 14:59:09;;;;;;;;;;;;;;;;;;5049003;28;1995;-39
2023/01/19 15:01:37;;;;;;;;;;;;;;;;;;5049170;28;1463;-41
2023/01/19 15:04:04;;;;;;;;;;;;;;;;;;5050568;28;2082;-39
2023/01/19 15:06:32;;;;;;;;;;;;;;;;;;5050535;28;1857;-39
2023/01/19 15:08:59;;;;;;;;;;;;;;;;;;5050456;28;1668;-39
2023/01/19 15:11:29;;;;;;;;;;;;;;;;;;5050583;28;1383;-39
2023/01/19 15:13:57;;;;;;;;;;;;;;;;;;5050262;28;1453;-39
2023/01/19 15:16:25;;;;;;;;;;;;;;;;;;5050843;28;1862;-39
2023/01/19 15:18:52;;;;;;;;;;;;;;;;;;5050551;28;1969;-38
2023/01/19 15:21:25;;;;;;;;;;;;;;;;;;5053074;28;1861;-38
2023/01/19 15:23:53;;;;;;;;;;;;;;;;;;5054043;28;1569;-41
2023/01/19 15:26:21;;;;;;;;;;;;;;;;;;5053859;28;1723;-38
2023/01/19 15:28:49;;;;;;;;;;;;;;;;;;5054117;28;1639;-39
2023/01/19 15:31:25;;;;;;;;;;;;;;;;;;5053896;28;1758;-38
2023/01/19 15:33:52;;;;;;;;;;;;;;;;;;5053846;28;1970;-40
2023/01/19 15:36:20;;;;;;;;;;;;;;;;;;5054156;28;1296;-37
2023/01/19 15:38:51;;;;;;;;;;;;;;;;;;5053519;28;2097;-39
2023/01/19 15:41:25;;;;;;;;;;;;;;;;;;5036505;28;1847;-38
2023/01/19 15:43:52;;;;;;;;;;;;;;;;;;5053654;28;1933;-37
2023/01/19 15:46:20;;;;;;;;;;;;;;;;;;5053908;28;2222;-39
2023/01/19 15:48:49;;;;;;;;;;;;;;;;;;5053712;28;1721;-38
2023/01/19 15:51:17;;;;;;;;;;;;;;;;;;5053553;28;2010;-38
2023/01/19 15:53:45;;;;;;;;;;;;;;;;;;5053631;28;1763;-39
2023/01/19 15:56:16;;;;;;;;;;;;;;;;;;5053238;28;1822;-39
2023/01/19 15:58:43;;;;;;;;;;;;;;;;;;5053277;28;1907;-39
2023/01/19 16:01:17;;;;;;;;;;;;;;;;;;5053398;28;1421;-37
2023/01/19 16:03:45;;;;;;;;;;;;;;;;;;5053380;28;2207;-38
2023/01/19 16:06:15;;;;;;;;;;;;;;;;;;5053218;28;1435;-39
2023/01/19 16:08:42;;;;;;;;;;;;;;;;;;5052775;28;2162;-37
2023/01/19 16:11:11;;;;;;;;;;;;;;;;;;5052461;28;1637;-38
2023/01/19 16:13:38;;;;;;;;;;;;;;;;;;5053276;28;1623;-39
2023/01/19 16:16:13;;;;;;;;;;;;;;;;;;5035382;28;2416;-37
2023/01/19 16:18:41;;;;;;;;;;;;;;;;;;5052730;28;1967;-37
2023/01/19 16:21:08;;;;;;;;;;;;;;;;;;5052880;28;1657;-37
2023/01/19 16:23:35;;;;;;;;;;;;;;;;;;5034873;28;2334;-38
2023/01/19 16:26:06;;;;;;;;;;;;;;;;;;5052884;28;1535;-39
2023/01/19 16:28:34;;;;;;;;;;;;;;;;;;5033437;28;1673;-44
2023/01/19 16:31:02;;;;;;;;;;;;;;;;;;5032499;28;1919;-39
2023/01/19 16:33:29;;;;;;;;;;;;;;;;;;5032568;28;1588;-39
2023/01/19 16:35:56;;;;;;;;;;;;;;;;;;5032513;28;2037;-38
2023/01/19 16:38:25;;;;;;;;;;;;;;;;;;5032721;28;1974;-39
2023/01/19 16:40:52;;;;;;;;;;;;;;;;;;5032933;28;1581;-38
2023/01/19 16:43:19;;;;;;;;;;;;;;;;;;5033118;28;1876;-40
2023/01/19 16:46:00;;;;;;;;;;;;;;;;;;5032832;28;1860;-39
2023/01/19 16:48:27;;;;;;;;;;;;;;;;;;5032432;28;1815;-38
2023/01/19 16:50:58;;;;;;;;;;;;;;;;;;5032739;28;1503;-40
2023/01/19 16:53:26;;;;;;;;;;;;;;;;;;5032649;28;1967;-37
2023/01/19 16:55:53;;;;;;;;;;;;;;;;;;5032795;28;1722;-39
2023/01/19 16:58:21;;;;;;;;;;;;;;;;;;5032180;28;2237;-39
2023/01/19 17:00:51;;;;;;;;;;;;;;;;;;5031865;28;1971;-38
2023/01/19 17:03:19;;;;;;;;;;;;;;;;;;5032278;28;2217;-39
2023/01/19 17:05:50;;;;;;;;;;;;;;;;;;5032491;28;2141;-39
2023/01/19 17:08:18;;;;;;;;;;;;;;;;;;5032045;28;1653;-39
2023/01/19 17:10:46;;;;;;;;;;;;;;;;;;5031962;28;1825;-37
2023/01/19 17:13:13;;;;;;;;;;;;;;;;;;5032158;28;1786;-38
2023/01/19 17:15:40;;;;;;;;;;;;;;;;;;5031479;28;1490;-39
2023/01/19 17:18:08;;;;;;;;;;;;;;;;;;5030697;28;2099;-39
2023/01/19 17:20:36;;;;;;;;;;;;;;;;;;5031903;28;1924;-39
2023/01/19 17:23:03;;;;;;;;;;;;;;;;;;5031805;28;1588;-38
2023/01/19 17:25:30;;;;;;;;;;;;;;;;;;5031561;28;1981;-39
2023/01/19 17:28:00;;;;;;;;;;;;;;;;;;5045893;28;1878;-40
2023/01/19 17:30:27;;;;;;;;;;;;;;;;;;5051816;28;1644;-37
2023/01/19 17:32:54;;;;;;;;;;;;;;;;;;5051459;28;1940;-38
2023/01/19 17:35:24;;;;;;;;;;;;;;;;;;5051661;28;2052;-37
2023/01/19 17:37:52;;;;;;;;;;;;;;;;;;5051637;28;2073;-38